VCBI/CMB METAR and TAF weather

Enter ICAO airport designator
Station Type Date Time Source
VCBI METAR 2020/03/31 09:10 UTC NOAA

VCBI 310910Z 26007KT 200V330 9999 FEW018 32/26 Q1008 NOSIG


Station Type Date Time Source
VCBI Decoded METAR 2020/03/31 09:10 UTC NOAA

Katunayake, Sri Lanka (VCBI) 07-10N 079-53E 8M
Mar 31, 2020 - 05:10 AM EDT / 2020.03.31 0910 UTC
Wind: from the W (260 degrees) at 8 MPH (7 KT) (direction variable):0
Visibility: greater than 7 mile(s):0
Sky conditions: mostly clear
Temperature: 89 F (32 C)
Heat index: 102.9 F (39.4 C):1
Dew Point: 78 F (26 C)
Relative Humidity: 70%
Pressure (altimeter): 29.77 in. Hg (1008 hPa)
ob: VCBI 310910Z 26007KT 200V330 9999 FEW018 32/26 Q1008 NOSIG
cycle: 9

Station Type Date Time Source
VCBI TAF 2020/03/31 06:12 UTC NOAA

TAF VCBI 310500Z 3106/0112 26010KT 9999 FEW018 TX33/3107Z TN25/0100Z PROB40
TEMPO 3110/3115 7000 -TSRA/SHRA SCT016 FEW020CB
BECMG 3115/3117 VRB06KT

Example: see airport list